createdAt,value
2022-08-10T00:00:54.929Z,29.80
2022-08-10T00:03:21.941Z,31.10
2022-08-10T00:05:55.228Z,30.80
2022-08-10T00:08:25.157Z,31.20
2022-08-10T00:10:53.969Z,33.10
2022-08-10T00:13:22.211Z,33.80
2022-08-10T00:15:54.266Z,33.70
2022-08-10T00:18:35.223Z,33.10
2022-08-10T00:21:08.230Z,32.20
2022-08-10T00:23:36.717Z,34.50
2022-08-10T00:26:05.026Z,35.20
2022-08-10T00:28:32.290Z,36.40
2022-08-10T00:30:59.868Z,36.60
2022-08-10T00:33:27.442Z,37.20
2022-08-10T00:35:54.568Z,38.30
2022-08-10T00:38:21.672Z,36.20
2022-08-10T00:40:48.678Z,38.20
2022-08-10T00:43:15.530Z,42.10
2022-08-10T00:45:59.114Z,42.60
2022-08-10T00:48:31.365Z,41.40
2022-08-10T00:51:00.223Z,44.10
2022-08-10T00:53:28.405Z,46.00
2022-08-10T00:57:14.984Z,44.60
2022-08-10T00:58:43.815Z,46.30
2022-08-10T01:01:11.180Z,46.90
2022-08-10T01:04:58.531Z,46.70
2022-08-10T01:07:14.111Z,47.20
2022-08-10T01:10:05.838Z,47.50
2022-08-10T01:12:46.111Z,48.90
2022-08-10T01:15:36.917Z,51.20
2022-08-10T01:18:18.399Z,51.80
2022-08-10T01:21:08.689Z,52.90
2022-08-10T01:24:30.857Z,54.30
2022-08-10T01:28:05.390Z,54.90
2022-08-10T01:30:34.310Z,56.20
2022-08-10T01:33:19.292Z,55.20
2022-08-10T01:36:10.150Z,58.90
2022-08-10T01:38:41.481Z,59.90
2022-08-10T01:41:28.597Z,59.60
2022-08-10T01:44:20.191Z,58.80
2022-08-10T01:46:57.238Z,57.80
2022-08-10T01:49:26.142Z,60.40
2022-08-10T01:52:00.465Z,60.40
2022-08-10T01:54:29.954Z,58.50
2022-08-10T01:56:58.487Z,60.00
2022-08-10T01:59:32.692Z,63.00
2022-08-10T02:02:04.018Z,65.60
2022-08-10T02:04:34.572Z,66.80
2022-08-10T02:07:02.544Z,67.30
2022-08-10T02:09:33.100Z,65.80
2022-08-10T02:12:08.589Z,62.50
2022-08-10T02:14:58.755Z,65.00
2022-08-10T02:17:57.748Z,69.40
2022-08-10T02:20:25.237Z,70.00
2022-08-10T02:23:17.117Z,69.20
2022-08-10T02:25:46.201Z,68.80
2022-08-10T02:28:30.190Z,66.50
2022-08-10T02:31:02.998Z,66.40
2022-08-10T02:33:36.948Z,69.40
2022-08-10T02:36:07.872Z,66.40
2022-08-10T02:38:58.065Z,69.40
2022-08-10T02:45:13.196Z,70.70
2022-08-10T02:45:18.529Z,70.20
2022-08-10T02:47:58.640Z,68.40
2022-08-10T02:50:33.575Z,67.60
2022-08-10T02:53:55.385Z,64.70
2022-08-10T02:56:18.850Z,67.90
2022-08-10T02:58:51.105Z,68.20
2022-08-10T03:01:23.298Z,67.00
2022-08-10T03:04:14.883Z,71.70
2022-08-10T03:06:45.129Z,77.70
2022-08-10T03:09:15.860Z,81.00
2022-08-10T03:12:35.373Z,80.70
2022-08-10T03:14:32.564Z,82.30
2022-08-10T03:17:01.655Z,82.60
2022-08-10T03:20:33.268Z,84.30
2022-08-10T03:22:19.128Z,83.10
2022-08-10T03:24:46.923Z,87.30
2022-08-10T03:27:15.301Z,85.20
2022-08-10T03:30:29.732Z,87.60
2022-08-10T03:32:33.439Z,86.40
2022-08-10T03:35:01.221Z,85.00
2022-08-10T03:37:28.156Z,87.30
2022-08-10T03:39:55.779Z,89.20
2022-08-10T03:42:23.921Z,86.80
2022-08-10T03:44:52.704Z,88.60
2022-08-10T03:47:21.295Z,91.30
2022-08-10T03:49:50.971Z,91.20
2022-08-10T03:52:19.740Z,90.90
2022-08-10T03:54:47.330Z,90.50
2022-08-10T03:57:14.524Z,90.00
2022-08-10T03:59:41.632Z,88.50
2022-08-10T04:02:44.420Z,89.80
2022-08-10T04:04:56.617Z,92.30
2022-08-10T04:07:23.890Z,92.50
2022-08-10T04:09:55.246Z,91.20
2022-08-10T04:12:24.368Z,93.30
2022-08-10T04:14:53.282Z,93.50
2022-08-10T04:17:56.783Z,92.50
2022-08-10T04:20:34.193Z,93.10
2022-08-10T04:23:06.285Z,92.00
2022-08-10T04:25:33.951Z,93.40
2022-08-10T04:28:01.289Z,90.70
2022-08-10T04:30:32.089Z,91.40
2022-08-10T04:33:02.293Z,90.90
2022-08-10T04:35:31.126Z,90.30
2022-08-10T04:37:59.329Z,87.50
2022-08-10T04:40:29.370Z,78.00
2022-08-10T04:43:07.487Z,73.90
2022-08-10T04:45:47.870Z,65.70
2022-08-10T04:48:40.101Z,59.60
2022-08-10T04:51:05.947Z,53.20
2022-08-10T04:53:34.279Z,50.00
2022-08-10T04:56:21.630Z,46.00
2022-08-10T04:58:59.279Z,43.80
2022-08-10T05:01:26.947Z,42.30
2022-08-10T05:04:38.372Z,37.30
2022-08-10T05:06:51.964Z,35.50
2022-08-10T05:09:18.831Z,33.70
2022-08-10T05:11:45.981Z,27.00
2022-08-10T05:14:12.956Z,28.30
2022-08-10T05:16:39.920Z,26.40
2022-08-10T05:19:07.077Z,24.70
2022-08-10T05:21:59.815Z,18.50
2022-08-10T05:24:20.887Z,18.10
2022-08-10T05:27:00.632Z,18.00
2022-08-10T05:29:36.836Z,17.70
2022-08-10T05:32:04.571Z,14.40
2022-08-10T05:34:31.659Z,12.50
2022-08-10T05:36:58.774Z,15.10
2022-08-10T05:39:31.842Z,10.80
2022-08-10T05:42:01.043Z,9.90
2022-08-10T05:44:29.005Z,3.60
2022-08-10T05:46:56.125Z,5.60
2022-08-10T05:49:23.024Z,1.00
2022-08-10T05:51:50.009Z,1.00
2022-08-10T05:54:17.394Z,1.00
2022-08-10T05:56:54.211Z,1.70
2022-08-10T06:00:10.885Z,1.00
2022-08-10T06:02:38.311Z,1.00
2022-08-10T06:05:16.527Z,1.00
2022-08-10T06:07:53.028Z,1.00
2022-08-10T06:10:31.903Z,1.00
2022-08-10T06:13:57.905Z,1.00
2022-08-10T06:16:27.088Z,1.00
2022-08-10T06:18:55.162Z,1.00
2022-08-10T06:21:22.830Z,1.00
2022-08-10T06:23:52.066Z,1.00
2022-08-10T06:26:21.563Z,1.00
2022-08-10T06:29:02.990Z,1.00
2022-08-10T06:31:48.009Z,1.00
2022-08-10T06:34:21.213Z,1.00
2022-08-10T06:36:48.620Z,1.00
2022-08-10T06:42:28.213Z,1.00
2022-08-10T06:45:03.640Z,1.00
2022-08-10T06:47:53.693Z,1.00
2022-08-10T06:50:34.843Z,1.00
2022-08-10T06:53:18.177Z,1.00
2022-08-10T06:55:59.899Z,1.00
2022-08-10T06:58:39.547Z,1.00
2022-08-10T07:01:12.772Z,1.00
2022-08-10T07:03:45.377Z,1.00
2022-08-10T07:06:14.009Z,1.00
2022-08-10T07:08:41.976Z,1.00
2022-08-10T07:11:12.027Z,1.00
2022-08-10T07:14:15.697Z,1.00
2022-08-10T07:16:28.938Z,1.00
2022-08-10T07:18:58.866Z,1.00
2022-08-10T07:21:27.439Z,1.00
2022-08-10T07:24:00.403Z,1.00
2022-08-10T07:26:30.184Z,1.00
2022-08-10T07:28:59.206Z,1.00
2022-08-10T07:31:54.486Z,1.00
2022-08-10T07:34:21.652Z,1.00
2022-08-10T07:37:01.429Z,1.00
2022-08-10T07:40:03.908Z,1.00
2022-08-10T07:42:24.620Z,1.00
2022-08-10T07:44:52.142Z,1.00
2022-08-10T07:47:53.140Z,1.00
2022-08-10T07:50:18.742Z,1.00
2022-08-10T07:52:47.619Z,1.00
2022-08-10T07:55:18.451Z,1.00
2022-08-10T07:57:48.624Z,1.00
2022-08-10T08:00:17.083Z,1.00
2022-08-10T08:02:56.702Z,1.00
2022-08-10T08:05:57.227Z,1.00
2022-08-10T08:08:15.931Z,1.00
2022-08-10T08:10:43.343Z,1.00
2022-08-10T08:13:11.594Z,1.00
2022-08-10T08:16:18.438Z,1.00
2022-08-10T08:18:28.791Z,1.00
2022-08-10T08:20:56.084Z,1.00
2022-08-10T08:24:30.365Z,1.00
2022-08-10T08:26:15.607Z,1.00
2022-08-10T08:28:45.632Z,1.00
2022-08-10T08:31:14.919Z,1.00
2022-08-10T08:33:44.243Z,1.00
2022-08-10T08:36:14.356Z,1.00
2022-08-10T08:38:42.626Z,1.00
2022-08-10T08:42:14.361Z,1.00
2022-08-10T08:45:34.893Z,1.00
2022-08-10T08:48:51.467Z,1.00
2022-08-10T08:52:09.985Z,1.00
2022-08-10T08:54:42.305Z,1.00
2022-08-10T08:57:49.716Z,1.00
2022-08-10T09:00:58.994Z,1.00
2022-08-10T09:04:16.120Z,1.00
2022-08-10T09:10:44.658Z,1.00
2022-08-10T09:13:26.818Z,1.00
2022-08-10T09:16:33.018Z,1.00
2022-08-10T09:19:35.138Z,1.00
2022-08-10T09:22:18.193Z,1.00
2022-08-10T09:25:09.239Z,1.00
2022-08-10T09:28:05.452Z,1.00
2022-08-10T09:31:03.618Z,1.00
2022-08-10T09:36:26.578Z,1.00
2022-08-10T09:38:01.258Z,1.00
2022-08-10T09:40:59.334Z,1.00
2022-08-10T09:43:50.652Z,1.00
2022-08-10T09:46:45.795Z,1.00
2022-08-10T09:50:11.490Z,1.00
2022-08-10T10:08:28.597Z,1.00
2022-08-10T10:11:12.425Z,1.00
2022-08-10T10:14:23.730Z,1.00
2022-08-10T10:17:18.092Z,1.00
2022-08-10T10:20:06.653Z,1.00
2022-08-10T10:23:01.425Z,1.00
2022-08-10T10:25:50.581Z,1.00
2022-08-10T10:29:06.856Z,1.00
2022-08-10T10:31:37.836Z,1.00
2022-08-10T10:34:21.761Z,1.00
2022-08-10T10:36:52.245Z,1.00
2022-08-10T10:39:24.034Z,1.00
2022-08-10T10:42:42.240Z,1.00
2022-08-10T10:45:50.309Z,1.00
2022-08-10T10:48:39.732Z,1.00
2022-08-10T10:51:41.542Z,1.00
2022-08-10T10:54:28.391Z,1.00
2022-08-10T10:57:58.535Z,1.00
2022-08-10T11:00:26.053Z,1.00
2022-08-10T11:03:26.805Z,1.00
2022-08-10T11:06:02.097Z,1.00
2022-08-10T11:08:36.418Z,1.00
2022-08-10T11:11:25.331Z,1.00
2022-08-10T11:14:37.542Z,1.00
2022-08-10T11:17:32.376Z,1.00
2022-08-10T11:20:24.641Z,1.00
2022-08-10T11:23:28.721Z,1.00
2022-08-10T11:26:10.680Z,1.00
2022-08-10T11:28:45.175Z,1.00
2022-08-10T11:31:38.111Z,1.00
2022-08-10T11:34:46.792Z,1.00
2022-08-10T11:38:32.724Z,1.00
2022-08-10T11:40:49.272Z,1.00
2022-08-10T11:43:24.163Z,1.00
2022-08-10T11:46:07.810Z,1.00
2022-08-10T11:48:53.789Z,1.00
2022-08-10T11:51:28.749Z,1.00
2022-08-10T11:54:07.786Z,1.00
2022-08-10T11:57:01.933Z,1.00
2022-08-10T11:59:58.058Z,1.00
2022-08-10T12:02:34.050Z,1.00
2022-08-10T12:05:10.783Z,1.00
2022-08-10T12:10:01.775Z,1.00
2022-08-10T12:10:40.705Z,1.00
2022-08-10T12:13:29.731Z,1.00
2022-08-10T12:16:07.928Z,1.00
2022-08-10T12:19:59.975Z,1.00
2022-08-10T12:22:28.154Z,1.00
2022-08-10T12:25:07.504Z,1.00
2022-08-10T12:27:40.540Z,1.00
2022-08-10T12:30:14.757Z,1.00
2022-08-10T12:33:10.691Z,1.00
2022-08-10T12:36:34.525Z,1.00
2022-08-10T12:39:29.681Z,1.00
2022-08-10T12:42:06.361Z,1.00
2022-08-10T12:44:42.991Z,1.00
2022-08-10T12:47:40.347Z,1.00
2022-08-10T12:50:34.407Z,1.00
2022-08-10T12:53:20.128Z,1.00
2022-08-10T12:55:49.879Z,1.00
2022-08-10T12:58:57.340Z,1.00
2022-08-10T13:01:17.701Z,1.00
2022-08-10T13:04:20.780Z,1.00
2022-08-10T13:06:48.390Z,1.00
2022-08-10T13:09:21.524Z,1.00
2022-08-10T13:12:34.129Z,1.00
2022-08-10T13:15:25.348Z,1.00
2022-08-10T13:17:54.588Z,1.00
2022-08-10T13:20:34.297Z,1.00
2022-08-10T13:23:06.169Z,1.00
2022-08-10T13:25:39.056Z,1.00
2022-08-10T13:28:36.688Z,1.00
2022-08-10T13:30:57.657Z,1.00
2022-08-10T13:34:40.944Z,1.00
2022-08-10T13:36:16.271Z,1.00
2022-08-10T13:38:48.838Z,1.00
2022-08-10T13:41:17.311Z,1.00
2022-08-10T13:43:57.339Z,1.00
2022-08-10T13:46:24.567Z,1.00
2022-08-10T13:48:55.707Z,1.00
2022-08-10T13:51:55.079Z,1.00
2022-08-10T13:54:16.262Z,1.00
2022-08-10T13:56:46.803Z,1.00
2022-08-10T13:59:16.061Z,1.00
2022-08-10T14:01:49.651Z,1.00
2022-08-10T14:04:18.933Z,1.00
2022-08-10T14:06:56.478Z,1.00
2022-08-10T14:09:34.203Z,1.00
2022-08-10T14:12:01.845Z,1.00
2022-08-10T14:14:31.168Z,1.00
2022-08-10T14:16:59.188Z,1.00
2022-08-10T14:19:29.773Z,1.00
2022-08-10T14:21:57.384Z,1.00
2022-08-10T14:24:28.943Z,1.00
2022-08-10T14:27:22.696Z,1.00
2022-08-10T14:29:57.549Z,1.00
2022-08-10T14:32:28.209Z,1.00
2022-08-10T14:36:15.658Z,1.00
2022-08-10T14:37:55.909Z,1.00
2022-08-10T14:40:26.831Z,1.00
2022-08-10T14:43:01.477Z,1.00
2022-08-10T14:45:31.745Z,1.00
2022-08-10T14:48:13.976Z,1.00
2022-08-10T14:50:55.630Z,1.00
2022-08-10T14:53:27.381Z,1.00
2022-08-10T14:56:01.009Z,1.00
2022-08-10T14:58:59.346Z,1.00
2022-08-10T15:01:59.437Z,1.00
2022-08-10T15:04:17.265Z,1.00
2022-08-10T15:06:55.874Z,1.00
2022-08-10T15:09:27.854Z,1.00
2022-08-10T15:12:13.651Z,1.00
2022-08-10T15:14:46.971Z,1.00
2022-08-10T15:17:23.568Z,1.00
2022-08-10T15:20:13.284Z,1.00
2022-08-10T15:22:50.018Z,1.00
2022-08-10T15:25:25.150Z,1.00
2022-08-10T15:28:10.879Z,1.00
2022-08-10T15:30:56.558Z,1.00
2022-08-10T15:33:57.398Z,1.00
2022-08-10T15:37:36.090Z,1.00
2022-08-10T15:40:24.244Z,1.00
2022-08-10T15:42:54.969Z,1.00
2022-08-10T15:45:25.726Z,1.00
2022-08-10T15:48:03.308Z,1.00
2022-08-10T15:50:43.960Z,1.00
2022-08-10T15:53:46.917Z,1.00
2022-08-10T15:56:33.702Z,1.00
2022-08-10T15:59:23.333Z,1.00
2022-08-10T16:02:03.805Z,1.00
2022-08-10T16:05:08.807Z,1.00
2022-08-10T16:07:45.778Z,1.00
2022-08-10T16:10:26.110Z,1.00
2022-08-10T16:13:00.850Z,1.00
2022-08-10T16:15:30.277Z,1.00
2022-08-10T16:18:06.075Z,1.00
2022-08-10T16:20:52.982Z,1.00
2022-08-10T16:24:03.397Z,1.00
2022-08-10T16:26:41.345Z,1.00
2022-08-10T16:29:13.572Z,1.00
2022-08-10T16:31:54.189Z,1.00
2022-08-10T16:34:22.640Z,1.00
2022-08-10T16:37:07.291Z,1.00
2022-08-10T16:39:59.702Z,1.00
2022-08-10T16:42:32.579Z,1.00
2022-08-10T16:45:32.980Z,1.00
2022-08-10T16:48:00.962Z,1.00
2022-08-10T16:50:41.521Z,1.00
2022-08-10T16:53:14.579Z,1.00
2022-08-10T16:55:50.652Z,1.00
2022-08-10T16:58:25.090Z,1.00
2022-08-10T17:00:53.376Z,1.00
2022-08-10T17:04:08.548Z,1.00
2022-08-10T17:06:42.540Z,1.00
2022-08-10T17:09:18.215Z,1.00
2022-08-10T17:11:49.065Z,1.00
2022-08-10T17:14:16.882Z,1.00
2022-08-10T17:16:47.164Z,1.00
2022-08-10T17:19:18.563Z,1.00
2022-08-10T17:21:56.986Z,1.00
2022-08-10T17:24:31.773Z,1.00
2022-08-10T17:28:03.134Z,1.00
2022-08-10T17:30:04.837Z,1.00
2022-08-10T17:32:59.275Z,1.00
2022-08-10T17:35:32.430Z,1.00
2022-08-10T17:38:31.810Z,1.00
2022-08-10T17:41:13.656Z,1.00
2022-08-10T17:43:46.558Z,1.00
2022-08-10T17:46:34.243Z,1.00
2022-08-10T17:49:07.710Z,1.00
2022-08-10T17:51:38.442Z,1.00
2022-08-10T17:54:14.556Z,1.00
2022-08-10T17:56:42.483Z,1.00
2022-08-10T17:59:17.361Z,1.00
2022-08-10T18:02:01.858Z,1.00
2022-08-10T18:04:42.087Z,1.00
2022-08-10T18:07:15.107Z,1.00
2022-08-10T18:09:50.962Z,1.00
2022-08-10T18:12:41.004Z,1.00
2022-08-10T18:15:14.104Z,1.00
2022-08-10T18:17:46.490Z,1.00
2022-08-10T18:20:16.513Z,1.00
2022-08-10T18:22:50.583Z,1.00
2022-08-10T18:25:30.548Z,1.00
2022-08-10T18:28:05.002Z,1.00
2022-08-10T18:30:51.175Z,1.00
2022-08-10T18:33:26.579Z,1.00
2022-08-10T18:35:55.633Z,1.00
2022-08-10T18:38:24.342Z,1.00
2022-08-10T18:40:59.519Z,1.00
2022-08-10T18:44:06.035Z,1.00
2022-08-10T18:46:59.518Z,1.00
2022-08-10T18:49:31.761Z,1.00
2022-08-10T18:52:03.674Z,1.00
2022-08-10T18:54:44.743Z,1.00
2022-08-10T18:58:07.851Z,1.00
2022-08-10T19:01:04.376Z,1.00
2022-08-10T19:03:54.326Z,1.00
2022-08-10T19:07:15.146Z,1.00
2022-08-10T19:10:30.020Z,1.00
2022-08-10T19:13:10.383Z,1.00
2022-08-10T19:15:56.390Z,1.00
2022-08-10T19:18:32.240Z,1.00
2022-08-10T19:21:33.081Z,1.00
2022-08-10T19:24:38.450Z,1.00
2022-08-10T19:27:35.751Z,1.00
2022-08-10T19:33:26.208Z,1.00
2022-08-10T19:36:21.023Z,1.00
2022-08-10T19:39:28.647Z,1.00
2022-08-10T19:42:11.855Z,1.00
2022-08-10T19:45:56.076Z,1.00
2022-08-10T19:48:38.432Z,1.00
2022-08-10T19:51:20.130Z,1.00
2022-08-10T19:54:04.964Z,1.00
2022-08-10T19:57:24.223Z,1.00
2022-08-10T20:00:22.852Z,1.00
2022-08-10T20:03:31.758Z,1.00
2022-08-10T20:06:22.653Z,1.00
2022-08-10T20:09:29.312Z,1.00
2022-08-10T20:12:07.094Z,1.00
2022-08-10T20:14:54.360Z,1.00
2022-08-10T20:17:51.423Z,1.00
2022-08-10T20:20:31.503Z,1.00
2022-08-10T20:23:21.062Z,1.00
2022-08-10T20:26:08.410Z,1.00
2022-08-10T20:29:04.142Z,1.00
2022-08-10T20:31:57.062Z,1.00
2022-08-10T20:34:28.086Z,1.00
2022-08-10T20:37:07.899Z,1.00
2022-08-10T20:40:01.043Z,1.00
2022-08-10T20:42:43.483Z,1.00
2022-08-10T20:45:51.830Z,1.00
2022-08-10T20:48:51.921Z,1.00
2022-08-10T20:51:59.225Z,1.00
2022-08-10T20:54:36.826Z,1.00
2022-08-10T20:57:54.413Z,1.00
2022-08-10T21:00:55.559Z,1.00
2022-08-10T21:04:13.505Z,1.00
2022-08-10T21:07:59.871Z,1.00
2022-08-10T21:11:22.096Z,1.00
2022-08-10T21:14:31.730Z,1.00
2022-08-10T21:17:35.077Z,1.00
2022-08-10T21:20:54.089Z,1.00
2022-08-10T21:23:30.279Z,1.00
2022-08-10T21:26:10.156Z,1.00
2022-08-10T21:29:06.831Z,1.00
2022-08-10T21:35:08.844Z,1.00
2022-08-10T21:38:00.706Z,1.00
2022-08-10T21:44:23.860Z,1.00
2022-08-10T21:48:07.403Z,1.00
2022-08-10T21:50:52.978Z,1.00
2022-08-10T21:54:11.571Z,1.00
2022-08-10T21:57:08.771Z,1.00
2022-08-10T22:00:11.898Z,1.00
2022-08-10T22:02:59.427Z,1.00
2022-08-10T22:09:12.063Z,1.00
2022-08-10T22:12:01.448Z,1.00
2022-08-10T22:14:52.823Z,1.00
2022-08-10T22:18:03.678Z,1.00
2022-08-10T22:20:51.008Z,1.00
2022-08-10T22:23:55.433Z,1.00
2022-08-10T22:27:56.688Z,1.00
2022-08-10T22:31:14.997Z,1.00
2022-08-10T22:31:25.745Z,1.00
2022-08-10T22:34:27.026Z,1.00
2022-08-10T22:37:55.463Z,1.00
2022-08-10T22:40:44.659Z,1.00
2022-08-10T22:43:46.474Z,1.00
2022-08-10T22:46:40.190Z,1.00
2022-08-10T22:49:07.498Z,1.00
2022-08-10T22:51:39.550Z,1.00
2022-08-10T22:54:38.875Z,1.00
2022-08-10T22:57:25.414Z,1.00
2022-08-10T22:59:52.534Z,1.00
2022-08-10T23:02:30.541Z,1.00
2022-08-10T23:05:06.852Z,1.00
2022-08-10T23:07:41.672Z,1.00
2022-08-10T23:10:11.773Z,1.00
2022-08-10T23:12:59.519Z,1.00
2022-08-10T23:15:51.476Z,1.00
2022-08-10T23:18:57.670Z,1.00
2022-08-10T23:22:03.221Z,1.00
2022-08-10T23:24:33.871Z,1.00
2022-08-10T23:27:12.494Z,1.00
2022-08-10T23:30:10.632Z,1.00
2022-08-10T23:32:41.034Z,1.00
2022-08-10T23:36:30.007Z,1.00
2022-08-10T23:38:03.473Z,1.00
2022-08-10T23:40:31.839Z,1.00
2022-08-10T23:42:59.556Z,1.00
2022-08-10T23:45:52.666Z,1.00
2022-08-10T23:48:24.253Z,1.00
2022-08-10T23:50:59.372Z,1.00
2022-08-10T23:53:33.736Z,1.00
2022-08-10T23:56:04.639Z,1.00
2022-08-10T23:58:40.006Z,1.00
